Time;durP1;ratioP1;P1;durP2;ratioP2;P2;SDS_P1;SDS_P2;PMS_P1;PMS_P2;Temp;Humidity;BMP_temperature;BMP_pressure;BME280_temperature;BME280_humidity;BME280_pressure;Samples;Min_cycle;Max_cycle;Signal;HPM_P1;HPM_P2
2022/07/04 00:00:21;;;;;;;4.13;1.40;;;;;;;11.96;100.00;101002.53;5082125;28;20099;-64
2022/07/04 00:02:47;;;;;;;5.88;2.47;;;;;;;11.88;100.00;100993.28;5069148;28;20029;-64
2022/07/04 00:05:13;;;;;;;4.38;1.52;;;;;;;11.76;100.00;100989.44;5050567;28;20864;-64
2022/07/04 00:07:47;;;;;;;4.45;1.75;;;;;;;11.79;100.00;100994.56;5043888;28;20031;-64
2022/07/04 00:10:14;;;;;;;3.45;1.70;;;;;;;11.76;100.00;100992.06;5039391;28;20025;-65
2022/07/04 00:12:40;;;;;;;4.65;2.08;;;;;;;11.60;100.00;100969.94;5038763;28;20448;-65
2022/07/04 00:15:07;;;;;;;6.97;1.80;;;;;;;11.59;100.00;100973.50;5047817;28;20094;-64
2022/07/04 00:17:32;;;;;;;3.78;1.70;;;;;;;11.59;100.00;100986.69;5086041;28;20537;-64
2022/07/04 00:19:58;;;;;;;5.45;1.95;;;;;;;11.53;100.00;100986.91;5080442;28;20112;-64
2022/07/04 00:22:23;;;;;;;3.58;1.63;;;;;;;11.52;100.00;100979.97;5082772;28;20036;-64
2022/07/04 00:24:49;;;;;;;3.75;1.88;;;;;;;11.56;100.00;100985.00;5064845;28;20078;-64
2022/07/04 00:27:14;;;;;;;5.57;1.77;;;;;;;11.54;100.00;100986.00;5056616;28;20471;-64
2022/07/04 00:29:39;;;;;;;6.90;1.65;;;;;;;11.52;100.00;100974.72;5084875;28;20025;-64
2022/07/04 00:32:05;;;;;;;8.20;1.90;;;;;;;11.48;100.00;100986.28;5071588;28;20486;-64
2022/07/04 00:34:31;;;;;;;7.72;1.85;;;;;;;11.45;100.00;100981.16;5068199;28;20060;-64
2022/07/04 00:36:56;;;;;;;3.90;1.63;;;;;;;11.41;100.00;100979.59;5065911;28;20036;-64
2022/07/04 00:39:22;;;;;;;7.30;2.20;;;;;;;11.36;100.00;100973.66;5069899;28;20028;-64
2022/07/04 00:41:47;;;;;;;5.20;1.50;;;;;;;11.41;100.00;100974.31;5063027;28;20020;-64
2022/07/04 00:44:13;;;;;;;4.18;1.90;;;;;;;11.39;100.00;100981.44;5067079;28;20086;-64
2022/07/04 00:46:40;;;;;;;5.05;2.03;;;;;;;11.33;100.00;100979.06;5087568;28;20517;-64
2022/07/04 00:49:06;;;;;;;7.32;1.95;;;;;;;11.25;100.00;100963.63;5073899;28;20033;-64
2022/07/04 00:51:32;;;;;;;4.13;2.00;;;;;;;11.07;100.00;100935.50;5086165;28;20074;-64
2022/07/04 00:53:58;;;;;;;4.55;1.77;;;;;;;11.20;100.00;100965.59;5083610;28;20027;-64
2022/07/04 00:56:24;;;;;;;6.47;1.73;;;;;;;10.80;100.00;100906.00;5060473;28;20032;-64
2022/07/04 00:58:51;;;;;;;4.75;1.73;;;;;;;11.13;100.00;100954.47;5073626;28;20052;-64
2022/07/04 01:01:20;;;;;;;4.07;1.90;;;;;;;11.21;100.00;100962.91;5059765;28;20112;-64
2022/07/04 01:03:46;;;;;;;3.88;1.67;;;;;;;11.17;100.00;100963.97;5080519;28;20371;-64
2022/07/04 01:06:13;;;;;;;2.83;1.40;;;;;;;11.00;100.00;100942.78;5094345;28;20035;-64
2022/07/04 01:08:40;;;;;;;5.50;2.00;;;;;;;11.06;100.00;100953.03;5073136;28;20073;-64
2022/07/04 01:11:06;;;;;;;4.25;1.98;;;;;;;11.16;100.00;100962.25;5080596;28;20025;-64
2022/07/04 01:13:31;;;;;;;4.63;1.95;;;;;;;10.92;100.00;100910.69;5073609;28;20035;-64
2022/07/04 01:15:57;;;;;;;2.90;1.55;;;;;;;11.25;100.00;100966.25;5080040;28;20428;-64
2022/07/04 01:18:22;;;;;;;3.17;1.48;;;;;;;11.16;100.00;100949.09;5076454;28;20044;-64
2022/07/04 01:20:48;;;;;;;6.95;2.15;;;;;;;11.27;100.00;100974.94;5073820;28;20024;-64
2022/07/04 01:23:13;;;;;;;3.65;1.95;;;;;;;11.23;100.00;100961.06;5072378;28;20036;-64
2022/07/04 01:25:38;;;;;;;2.70;1.50;;;;;;;11.14;100.00;100948.31;5047803;28;20031;-64
2022/07/04 01:28:06;;;;;;;4.40;1.67;;;;;;;11.18;100.00;100960.41;5080656;28;20024;-64
2022/07/04 01:30:31;;;;;;;2.30;1.40;;;;;;;11.00;100.00;100931.41;5086713;28;20043;-64
2022/07/04 01:32:56;;;;;;;5.00;1.90;;;;;;;10.99;100.00;100933.19;5073108;28;20021;-65
2022/07/04 01:35:22;;;;;;;6.38;1.40;;;;;;;10.99;100.00;100927.94;5074023;28;20063;-65
2022/07/04 01:37:49;;;;;;;4.75;1.70;;;;;;;11.08;100.00;100953.84;5073953;28;20430;-65
2022/07/04 01:40:14;;;;;;;2.83;1.30;;;;;;;11.04;100.00;100952.25;5073508;28;20367;-65
2022/07/04 01:42:40;;;;;;;3.50;1.52;;;;;;;10.82;100.00;100925.16;5085494;28;20039;-65
2022/07/04 01:45:06;;;;;;;4.85;1.65;;;;;;;10.94;100.00;100942.19;5074364;28;20031;-65
2022/07/04 01:47:32;;;;;;;3.45;1.42;;;;;;;10.95;100.00;100947.38;5090911;28;20032;-65
2022/07/04 01:49:57;;;;;;;2.63;1.38;;;;;;;10.93;100.00;100953.63;5081900;28;20033;-65
2022/07/04 01:52:25;;;;;;;5.28;1.45;;;;;;;10.75;100.00;100929.81;5078695;28;20043;-64
2022/07/04 01:54:51;;;;;;;4.03;1.65;;;;;;;10.85;100.00;100959.22;5061950;28;20031;-64
2022/07/04 01:57:16;;;;;;;3.25;1.50;;;;;;;10.40;100.00;100891.06;5074053;28;20028;-65
2022/07/04 02:02:25;;;;;;;6.53;1.30;;;;;;;10.75;100.00;100961.38;5063228;28;20149;-65
2022/07/04 02:04:51;;;;;;;2.85;1.33;;;;;;;10.65;100.00;100960.03;5087520;28;20053;-65
2022/07/04 02:07:16;;;;;;;4.60;1.95;;;;;;;10.70;100.00;100967.75;5068718;28;20073;-65
2022/07/04 02:09:41;;;;;;;3.50;1.38;;;;;;;10.68;100.00;100972.19;5080294;28;20033;-64
2022/07/04 02:14:51;;;;;;;5.20;1.47;;;;;;;10.56;100.00;100964.84;5070758;28;20038;-64
2022/07/04 02:17:16;;;;;;;2.45;1.10;;;;;;;10.49;100.00;100968.63;5071733;28;20390;-64
2022/07/04 02:19:41;;;;;;;2.90;1.33;;;;;;;10.49;100.00;100982.63;5072174;28;20031;-64
2022/07/04 02:22:07;;;;;;;2.70;1.20;;;;;;;10.40;100.00;100972.50;5075812;28;20020;-65
2022/07/04 02:24:32;;;;;;;2.25;1.23;;;;;;;10.43;100.00;100979.38;5092534;28;20111;-65
2022/07/04 02:26:58;;;;;;;3.92;1.83;;;;;;;10.30;100.00;100967.66;5078104;28;20039;-65
2022/07/04 02:29:23;;;;;;;5.10;1.67;;;;;;;10.33;100.00;100975.41;5084826;28;20043;-65
2022/07/04 02:31:48;;;;;;;4.25;1.70;;;;;;;10.30;100.00;100976.41;5086251;28;20032;-65
2022/07/04 02:34:14;;;;;;;3.28;1.92;;;;;;;10.32;100.00;100994.72;5076313;28;20027;-65
2022/07/04 02:36:39;;;;;;;3.88;1.58;;;;;;;10.22;100.00;100987.19;5060870;28;20024;-65
2022/07/04 02:39:05;;;;;;;3.03;1.60;;;;;;;10.24;100.00;100993.25;5074351;28;20474;-65
2022/07/04 02:41:34;;;;;;;5.93;1.65;;;;;;;10.15;100.00;100982.25;5074477;28;20032;-65
2022/07/04 02:43:59;;;;;;;5.55;1.75;;;;;;;10.13;100.00;100987.53;5070546;28;20025;-65
2022/07/04 02:46:25;;;;;;;3.50;1.77;;;;;;;10.14;100.00;100999.75;5084343;28;20444;-65
2022/07/04 02:48:50;;;;;;;3.33;1.60;;;;;;;10.14;100.00;101009.41;5072377;28;20028;-65
2022/07/04 02:51:16;;;;;;;3.65;1.73;;;;;;;10.11;100.00;101004.25;5073578;28;20703;-65
2022/07/04 02:53:41;;;;;;;2.83;1.35;;;;;;;10.04;100.00;100998.38;5061283;28;20036;-65
2022/07/04 02:56:07;;;;;;;4.05;1.70;;;;;;;10.00;100.00;101001.19;5077700;28;20083;-65
2022/07/04 02:58:32;;;;;;;3.33;1.45;;;;;;;9.97;100.00;101007.41;5072883;28;20082;-65
2022/07/04 03:00:58;;;;;;;4.72;1.95;;;;;;;9.92;100.00;101014.59;5056325;28;20025;-65
2022/07/04 03:03:24;;;;;;;5.03;2.10;;;;;;;9.74;100.00;100997.78;5070437;28;20036;-64
2022/07/04 03:05:49;;;;;;;2.95;1.75;;;;;;;9.78;100.00;101009.00;5080016;28;20017;-64
2022/07/04 03:08:14;;;;;;;3.72;1.92;;;;;;;9.74;100.00;101003.00;5077725;28;20052;-64
2022/07/04 03:10:40;;;;;;;3.95;2.03;;;;;;;9.66;100.00;100991.09;5072469;28;20051;-64
2022/07/04 03:13:05;;;;;;;8.35;1.92;;;;;;;9.61;100.00;100982.53;5085844;28;20024;-65
2022/07/04 03:15:31;;;;;;;2.95;1.88;;;;;;;9.74;100.00;101015.28;5065137;28;20060;-65
2022/07/04 03:17:56;;;;;;;4.15;2.38;;;;;;;9.63;100.00;101007.78;5081060;28;20024;-65
2022/07/04 03:20:22;;;;;;;5.93;2.75;;;;;;;9.60;100.00;101007.03;5088341;28;20035;-65
2022/07/04 03:22:47;;;;;;;4.10;2.15;;;;;;;9.74;100.00;101028.41;5090058;28;20604;-65
2022/07/04 03:25:12;;;;;;;4.07;2.63;;;;;;;9.77;100.00;101026.50;5073846;28;20043;-65
2022/07/04 03:27:38;;;;;;;4.78;2.97;;;;;;;9.80;100.00;101022.91;5077046;28;20466;-65
2022/07/04 03:30:03;;;;;;;5.95;2.78;;;;;;;9.83;100.00;101024.59;5085304;28;20042;-65
2022/07/04 03:32:29;;;;;;;4.35;2.92;;;;;;;9.85;100.00;101028.88;5060992;28;20090;-65
2022/07/04 03:34:54;;;;;;;7.70;3.05;;;;;;;9.86;100.00;101030.59;5079952;28;20103;-65
2022/07/04 03:37:20;;;;;;;4.13;2.13;;;;;;;9.85;100.00;101023.63;5070559;28;20032;-65
2022/07/04 03:39:45;;;;;;;7.45;2.92;;;;;;;9.80;100.00;101012.41;5081196;28;20024;-65
2022/07/04 03:42:10;;;;;;;4.13;2.35;;;;;;;9.72;100.00;101017.97;5084238;28;20025;-65
2022/07/04 03:44:36;;;;;;;5.13;3.20;;;;;;;9.71;100.00;101041.63;5075698;28;20023;-65
2022/07/04 03:47:01;;;;;;;4.50;2.70;;;;;;;9.74;100.00;101025.78;5073835;28;20471;-65
2022/07/04 03:49:27;;;;;;;6.50;2.97;;;;;;;9.54;100.00;100986.28;5080830;28;20071;-65
2022/07/04 03:51:52;;;;;;;5.25;2.70;;;;;;;9.83;100.00;101025.47;5062085;28;20078;-65
2022/07/04 03:54:17;;;;;;;4.43;3.03;;;;;;;9.86;100.00;101020.09;5074826;28;20364;-65
2022/07/04 03:56:43;;;;;;;5.88;3.30;;;;;;;9.89;100.00;101017.34;5083916;28;20107;-65
2022/07/04 03:59:08;;;;;;;7.75;2.83;;;;;;;9.99;100.00;101021.34;5076056;28;20028;-65
2022/07/04 04:01:33;;;;;;;5.00;3.13;;;;;;;10.04;100.00;101029.88;5088760;28;20035;-65
2022/07/04 04:06:42;;;;;;;3.65;2.70;;;;;;;10.07;100.00;101032.38;5094145;28;20168;-65
2022/07/04 04:09:13;;;;;;;6.38;2.92;;;;;;;10.06;100.00;101028.06;5078405;28;20119;-65
2022/07/04 04:11:38;;;;;;;6.45;3.17;;;;;;;10.17;100.00;101044.28;5078382;28;20117;-65
2022/07/04 04:14:03;;;;;;;4.88;2.88;;;;;;;10.18;100.00;101045.16;5081030;28;20020;-65
2022/07/04 04:16:29;;;;;;;4.05;2.45;;;;;;;10.13;100.00;101040.06;5090754;28;20111;-65
2022/07/04 04:18:54;;;;;;;6.63;2.50;;;;;;;10.24;100.00;101047.53;5086930;28;20032;-64
2022/07/04 04:21:20;;;;;;;4.43;2.58;;;;;;;10.29;100.00;101047.38;5074495;28;20421;-64
2022/07/04 04:23:45;;;;;;;4.85;2.80;;;;;;;10.23;100.00;101030.94;5072778;28;20020;-65
2022/07/04 04:26:11;;;;;;;4.88;2.92;;;;;;;10.38;100.00;101047.84;5094497;28;20482;-65
2022/07/04 04:28:36;;;;;;;5.72;3.10;;;;;;;10.37;100.00;101038.28;5094151;28;20027;-65
2022/07/04 04:31:02;;;;;;;4.43;2.97;;;;;;;10.53;100.00;101054.28;5090775;28;20032;-65
2022/07/04 04:33:27;;;;;;;5.18;3.17;;;;;;;10.55;100.00;101048.06;5056845;28;20032;-65
2022/07/04 04:35:52;;;;;;;5.32;3.35;;;;;;;10.67;100.00;101058.09;5085427;28;20034;-65
2022/07/04 04:38:18;;;;;;;6.18;3.47;;;;;;;10.73;100.00;101046.47;5067923;28;20556;-65
2022/07/04 04:40:43;;;;;;;6.43;3.70;;;;;;;10.73;100.00;101038.59;5059353;28;20060;-65
2022/07/04 04:43:08;;;;;;;7.88;4.05;;;;;;;10.90;100.00;101058.94;5086459;28;20029;-65
2022/07/04 04:45:34;;;;;;;6.50;3.50;;;;;;;10.93;100.00;101059.66;5079102;28;20048;-65
2022/07/04 04:47:59;;;;;;;4.63;3.42;;;;;;;11.03;100.00;101061.00;5076541;28;20032;-65
2022/07/04 04:50:24;;;;;;;6.78;3.97;;;;;;;11.09;100.00;101054.63;5049386;28;20029;-65
2022/07/04 04:52:50;;;;;;;6.85;3.95;;;;;;;11.23;100.00;101063.66;5067409;28;20123;-65
2022/07/04 04:55:15;;;;;;;5.00;3.65;;;;;;;11.32;100.00;101066.81;5060339;28;20055;-65
2022/07/04 04:57:41;;;;;;;6.97;3.80;;;;;;;11.45;100.00;101068.00;5074156;28;20040;-65
2022/07/04 05:00:07;;;;;;;5.55;3.50;;;;;;;11.59;100.00;101058.56;5092019;28;20028;-65
2022/07/04 05:02:32;;;;;;;8.65;3.67;;;;;;;11.67;100.00;101047.72;5077017;28;20052;-65
2022/07/04 05:04:57;;;;;;;5.70;3.45;;;;;;;11.60;100.00;101020.81;5072137;28;20099;-65
2022/07/04 05:07:23;;;;;;;14.48;3.67;;;;;;;11.96;100.00;101051.72;5086652;28;20093;-65
2022/07/04 05:09:48;;;;;;;5.30;2.90;;;;;;;12.04;100.00;101053.06;5083675;28;20115;-65
2022/07/04 05:12:14;;;;;;;5.88;3.05;;;;;;;12.16;100.00;101063.06;5082428;28;20055;-65
2022/07/04 05:14:39;;;;;;;4.65;3.25;;;;;;;12.22;100.00;101056.66;5087398;28;20474;-65
2022/07/04 05:17:04;;;;;;;9.45;3.20;;;;;;;12.27;100.00;101049.38;5067676;28;20471;-65
2022/07/04 05:19:30;;;;;;;5.85;3.30;;;;;;;12.43;100.00;101055.66;5063357;28;20025;-65
2022/07/04 05:21:55;;;;;;;6.57;3.50;;;;;;;12.38;100.00;101041.81;5084920;28;20123;-65
2022/07/04 05:24:21;;;;;;;4.22;2.08;;;;;;;12.66;100.00;101058.03;5087202;28;20032;-65
2022/07/04 05:26:46;;;;;;;5.65;2.83;;;;;;;12.74;100.00;101062.94;5085951;28;20066;-65
2022/07/04 05:29:12;;;;;;;5.22;2.83;;;;;;;12.72;100.00;101038.41;5066328;28;20031;-65
2022/07/04 05:31:37;;;;;;;4.65;2.72;;;;;;;12.71;100.00;101028.78;5085371;28;20483;-65
2022/07/04 05:34:03;;;;;;;4.55;2.42;;;;;;;12.96;100.00;101050.41;5072945;28;20041;-66
2022/07/04 05:36:28;;;;;;;4.38;2.25;;;;;;;13.03;100.00;101043.91;5089683;28;20036;-66
2022/07/04 05:38:54;;;;;;;4.30;2.42;;;;;;;13.27;100.00;101061.19;5048859;28;20039;-65
2022/07/04 05:41:19;;;;;;;7.43;3.08;;;;;;;13.32;100.00;101048.59;5083429;28;20077;-66
2022/07/04 05:43:45;;;;;;;8.82;3.35;;;;;;;13.47;100.00;101056.66;5062045;28;20028;-65
2022/07/04 05:46:11;;;;;;;4.80;2.70;;;;;;;13.53;100.00;101053.69;5080711;28;20024;-65
2022/07/04 05:48:36;;;;;;;6.50;3.10;;;;;;;13.62;100.00;101053.25;5084946;28;20035;-66
2022/07/04 05:51:03;;;;;;;4.95;2.75;;;;;;;13.64;100.00;101054.00;5080571;28;20028;-65
2022/07/04 05:53:28;;;;;;;5.35;2.85;;;;;;;13.79;100.00;101053.19;5076546;28;20039;-65
2022/07/04 05:55:54;;;;;;;5.82;2.47;;;;;;;13.84;100.00;101051.16;5090664;28;20107;-66
2022/07/04 05:58:19;;;;;;;9.63;2.70;;;;;;;13.89;100.00;101048.28;5059284;28;20024;-65
2022/07/04 06:00:45;;;;;;;5.85;2.92;;;;;;;13.91;100.00;101038.47;5067186;28;20875;-66
2022/07/04 06:03:10;;;;;;;5.03;2.42;;;;;;;14.01;100.00;101037.03;5014766;28;20036;-65
2022/07/04 06:05:35;;;;;;;4.93;2.60;;;;;;;14.11;100.00;101041.75;5028686;28;20035;-66
2022/07/04 06:08:01;;;;;;;7.03;2.35;;;;;;;14.21;100.00;101035.03;5049904;28;21087;-65
2022/07/04 06:10:27;;;;;;;4.97;2.08;;;;;;;14.29;100.00;101031.97;5037513;28;20817;-65
2022/07/04 06:12:52;;;;;;;7.07;2.53;;;;;;;14.32;100.00;101026.50;5047299;28;20035;-65
2022/07/04 06:15:18;;;;;;;4.18;2.35;;;;;;;14.44;100.00;101041.72;5053551;28;20068;-65
2022/07/04 06:17:43;;;;;;;4.85;2.58;;;;;;;14.56;100.00;101046.34;5026304;28;20040;-65
2022/07/04 06:20:09;;;;;;;9.65;3.25;;;;;;;14.63;100.00;101045.00;5027123;28;20029;-65
2022/07/04 06:22:54;;;;;;;5.90;2.28;;;;;;;14.74;100.00;101041.75;5026414;28;20036;-65
2022/07/04 06:25:20;;;;;;;5.50;2.50;;;;;;;14.75;100.00;101030.25;5015414;28;20044;-65
2022/07/04 06:27:47;;;;;;;4.97;2.40;;;;;;;14.84;100.00;101035.88;5013481;28;20795;-66
2022/07/04 06:30:12;;;;;;;5.97;2.97;;;;;;;14.98;100.00;101050.94;5002651;28;20417;-66
2022/07/04 06:32:47;;;;;;;7.05;2.95;;;;;;;15.07;100.00;101047.75;5030509;28;20098;-66
2022/07/04 06:37:57;;;;;;;7.53;1.98;;;;;;;15.31;100.00;101050.75;4978655;28;20049;-66
2022/07/04 06:40:23;;;;;;;8.25;2.58;;;;;;;15.35;100.00;101047.00;5011558;28;20084;-66
2022/07/04 06:42:50;;;;;;;4.18;2.13;;;;;;;15.52;100.00;101059.25;4993375;28;20021;-65
2022/07/04 06:45:15;;;;;;;7.03;2.63;;;;;;;15.64;100.00;101061.19;4989448;28;20026;-66
2022/07/04 06:47:41;;;;;;;10.15;2.38;;;;;;;15.75;100.00;101067.53;4987569;28;20060;-66
2022/07/04 06:50:07;;;;;;;12.88;2.05;;;;;;;15.77;100.00;101059.50;5001902;28;20139;-66
2022/07/04 06:52:34;;;;;;;7.13;2.40;;;;;;;15.79;100.00;101058.44;5000013;28;20021;-66
2022/07/04 06:54:59;;;;;;;6.93;2.03;;;;;;;15.95;100.00;101068.97;4998302;28;20087;-66
2022/07/04 06:57:25;;;;;;;8.95;1.85;;;;;;;15.85;100.00;101041.31;4995565;28;20044;-66
2022/07/04 06:59:50;;;;;;;6.22;2.28;;;;;;;16.00;100.00;101050.97;4994436;28;20025;-66
2022/07/04 07:02:15;;;;;;;3.58;1.45;;;;;;;16.03;100.00;101056.09;5006835;28;20909;-66
2022/07/04 07:04:42;;;;;;;5.28;2.05;;;;;;;16.01;100.00;101052.69;5003552;28;20056;-66
2022/07/04 07:07:08;;;;;;;4.53;2.05;;;;;;;16.21;100.00;101062.91;4992580;28;20061;-67
2022/07/04 07:09:34;;;;;;;3.80;1.98;;;;;;;16.27;100.00;101062.50;4998264;28;20025;-67
2022/07/04 07:11:59;;;;;;;7.20;2.03;;;;;;;16.26;100.00;101044.88;5003039;28;20172;-66
2022/07/04 07:14:24;;;;;;;10.13;2.20;;;;;;;16.47;100.00;101060.38;5005755;28;20056;-66
2022/07/04 07:16:50;;;;;;;6.35;2.20;;;;;;;16.53;100.00;101065.28;5001546;28;20953;-66
2022/07/04 07:19:15;;;;;;;11.88;2.63;;;;;;;16.58;100.00;101064.09;4994156;28;20028;-67
2022/07/04 07:21:40;;;;;;;4.25;1.90;;;;;;;16.67;100.00;101062.63;4990406;28;20017;-66
2022/07/04 07:24:06;;;;;;;4.38;1.90;;;;;;;16.75;100.00;101068.31;4990379;28;20017;-66
2022/07/04 07:26:31;;;;;;;5.90;2.65;;;;;;;16.72;100.00;101055.25;4992235;28;20041;-67
2022/07/04 07:28:56;;;;;;;9.20;2.15;;;;;;;16.82;100.00;101062.50;4995585;28;20033;-66
2022/07/04 07:31:22;;;;;;;7.63;2.80;;;;;;;16.90;100.00;101069.94;5004857;28;20902;-66
2022/07/04 07:33:47;;;;;;;5.35;2.67;;;;;;;16.95;100.00;101067.00;4992523;28;20059;-66
2022/07/04 07:36:13;;;;;;;11.32;2.70;;;;;;;16.97;100.00;101068.59;4994191;28;20033;-66
2022/07/04 07:38:38;;;;;;;10.45;3.33;;;;;;;16.99;100.00;101061.41;4993421;28;20986;-66
2022/07/04 07:41:07;;;;;;;8.82;2.72;;;;;;;17.06;100.00;101060.03;4992908;28;20036;-67
2022/07/04 07:43:33;;;;;;;11.98;3.10;;;;;;;17.19;100.00;101071.56;4992216;28;20038;-67
2022/07/04 07:45:59;;;;;;;14.95;3.42;;;;;;;17.21;100.00;101059.00;4993982;28;20086;-67
2022/07/04 07:48:24;;;;;;;8.07;2.88;;;;;;;17.26;100.00;101056.03;4991424;28;20056;-66
2022/07/04 07:50:49;;;;;;;7.53;2.30;;;;;;;17.26;100.00;101051.59;5002986;28;20021;-66
2022/07/04 07:53:16;;;;;;;6.30;2.97;;;;;;;17.23;100.00;101035.88;5005193;28;20052;-66
2022/07/04 07:55:41;;;;;;;10.18;2.58;;;;;;;17.19;100.00;101017.56;4983995;28;20064;-66
2022/07/04 07:58:07;;;;;;;9.07;2.97;;;;;;;17.49;100.00;101062.44;4996232;28;20761;-66
2022/07/04 08:00:32;;;;;;;6.00;2.50;;;;;;;17.52;100.00;101048.94;4989121;28;20064;-66
2022/07/04 08:05:42;;;;;;;9.07;2.47;;;;;;;17.68;100.00;101050.47;4994575;28;20951;-67
2022/07/04 08:08:09;;;;;;;9.25;2.35;;;;;;;17.76;100.00;101044.63;5000231;28;20033;-66
2022/07/04 08:10:35;;;;;;;5.45;2.40;;;;;;;17.84;100.00;101053.75;4998992;28;20270;-67
2022/07/04 08:13:01;;;;;;;6.80;2.20;;;;;;;17.88;100.00;101049.09;4998588;28;20930;-67
2022/07/04 08:15:27;;;;;;;5.13;1.92;;;;;;;17.93;100.00;101052.28;4987062;28;20090;-67
2022/07/04 08:17:53;;;;;;;15.65;2.40;;;;;;;18.05;100.00;101061.19;5000860;28;20236;-67
2022/07/04 08:20:18;;;;;;;4.63;1.90;;;;;;;18.14;100.00;101061.44;5001865;28;20835;-67
2022/07/04 08:22:44;;;;;;;9.98;1.83;;;;;;;18.08;100.00;101053.84;5002227;28;20029;-66
2022/07/04 08:25:09;;;;;;;5.65;2.17;;;;;;;18.15;100.00;101056.97;4994711;28;20052;-67
2022/07/04 08:27:35;;;;;;;5.80;2.08;;;;;;;18.22;100.00;101053.72;4989149;28;20022;-67
2022/07/04 08:30:00;;;;;;;7.20;1.70;;;;;;;18.26;100.00;101055.22;4994838;28;20865;-67
2022/07/04 08:32:26;;;;;;;6.00;1.75;;;;;;;18.40;100.00;101059.53;4985868;28;20029;-67
2022/07/04 08:34:52;;;;;;;3.75;1.33;;;;;;;18.43;100.00;101042.50;4996390;28;20049;-66
2022/07/04 08:37:17;;;;;;;6.20;1.90;;;;;;;18.53;100.00;101046.22;4995621;28;20021;-67
2022/07/04 08:39:43;;;;;;;3.67;1.67;;;;;;;18.55;100.00;101034.53;4998127;28;20086;-67
2022/07/04 08:42:13;;;;;;;5.18;2.05;;;;;;;18.67;100.00;101048.75;5001033;28;20033;-67
2022/07/04 08:44:41;;;;;;;5.10;1.95;;;;;;;18.68;100.00;101035.31;4989602;28;20869;-67
2022/07/04 08:47:10;;;;;;;3.38;1.88;;;;;;;18.81;100.00;101049.44;4997489;28;20045;-67
2022/07/04 08:49:38;;;;;;;5.65;2.20;;;;;;;18.85;100.00;101036.75;4990392;28;20037;-67
2022/07/04 08:52:06;;;;;;;5.55;2.00;;;;;;;18.97;100.00;101049.13;4990589;28;20090;-67
2022/07/04 09:00:03;;;;;;;5.72;1.83;;;;;;;19.17;100.00;101045.81;5004856;28;20050;-67
2022/07/04 09:02:29;;;;;;;4.80;1.10;;;;;;;19.23;100.00;101041.88;4991922;28;20223;-68
2022/07/04 09:04:55;;;;;;;6.20;1.70;;;;;;;19.31;100.00;101034.97;4988542;28;20033;-67
2022/07/04 09:07:20;;;;;;;4.95;1.58;;;;;;;19.38;100.00;101036.19;4994397;28;20034;-67
2022/07/04 09:09:46;;;;;;;5.32;1.52;;;;;;;19.28;100.00;101013.88;5008692;28;20026;-67
2022/07/04 09:12:11;;;;;;;10.18;1.85;;;;;;;19.46;100.00;101032.13;5012867;28;20029;-67
2022/07/04 09:14:38;;;;;;;4.35;1.63;;;;;;;19.28;100.00;100992.56;4996295;28;20890;-67
2022/07/04 09:17:04;;;;;;;7.05;1.75;;;;;;;19.68;100.00;101043.69;5000312;28;20811;-69
2022/07/04 09:19:29;;;;;;;5.28;1.73;;;;;;;19.71;100.00;101043.44;4987634;28;20033;-68
2022/07/04 09:21:55;;;;;;;6.82;1.25;;;;;;;19.76;100.00;101035.09;4991132;28;20040;-67
2022/07/04 09:24:50;;;;;;;5.28;1.58;;;;;;;19.86;100.00;101050.25;4977271;28;20037;-68
2022/07/04 09:27:32;;;;;;;3.95;1.33;;;;;;;19.91;100.00;101055.22;4978070;28;20040;-68
2022/07/04 09:29:59;;;;;;;6.70;1.60;;;;;;;19.98;100.00;101045.75;5022226;28;20091;-67
2022/07/04 09:32:52;;;;;;;4.95;1.73;;;;;;;20.03;100.00;101053.41;5005928;28;20136;-67
2022/07/04 09:35:24;;;;;;;4.07;1.73;;;;;;;19.61;100.00;100993.59;4991270;28;20029;-67
2022/07/04 09:37:54;;;;;;;5.35;1.13;;;;;;;19.77;100.00;101048.28;4997917;28;20037;-66
2022/07/04 09:40:33;;;;;;;4.63;1.88;;;;;;;19.61;100.00;101046.94;5008015;28;20065;-66
2022/07/04 09:43:00;;;;;;;6.38;2.00;;;;;;;19.62;100.00;101038.81;4996286;28;20065;-67
2022/07/04 09:45:27;;;;;;;7.20;1.45;;;;;;;19.67;100.00;101028.63;4993768;28;20480;-68
2022/07/04 09:47:56;;;;;;;2.47;1.20;;;;;;;20.02;100.00;101041.88;4994363;28;20029;-67
2022/07/04 09:50:23;;;;;;;5.32;1.60;;;;;;;20.16;100.00;101043.47;4989488;28;20025;-67
2022/07/04 09:53:02;;;;;;;3.72;1.58;;;;;;;20.31;100.00;101048.44;4998024;28;20029;-68
2022/07/04 09:55:34;;;;;;;5.90;1.52;;;;;;;20.32;100.00;101050.16;4998067;28;20025;-65
2022/07/04 09:58:02;;;;;;;4.70;1.70;;;;;;;20.22;100.00;101042.97;4985943;28;20953;-67
2022/07/04 10:00:34;;;;;;;5.30;1.77;;;;;;;20.33;100.00;101040.31;4981494;28;20033;-68
2022/07/04 10:03:26;;;;;;;3.95;1.33;;;;;;;20.61;100.00;101044.28;5001560;28;20035;-67
2022/07/04 10:06:09;;;;;;;5.38;1.58;;;;;;;20.48;100.00;101017.69;4980050;28;20121;-67
2022/07/04 10:08:35;;;;;;;6.57;1.73;;;;;;;20.69;100.00;101020.44;4989905;28;20041;-68
2022/07/04 10:11:02;;;;;;;5.65;1.77;;;;;;;20.78;100.00;101019.69;4989623;28;20982;-68
2022/07/04 10:13:28;;;;;;;3.30;1.27;;;;;;;21.00;100.00;101022.28;4992754;28;20036;-68
2022/07/04 10:15:53;;;;;;;3.50;1.20;;;;;;;21.12;100.00;101045.34;4985047;28;20021;-68
2022/07/04 10:18:21;;;;;;;4.93;1.60;;;;;;;20.86;92.58;101039.44;4986064;28;20179;-66
2022/07/04 10:20:48;;;;;;;5.05;1.15;;;;;;;20.34;96.72;100970.81;4988535;28;20021;-67
2022/07/04 10:23:14;;;;;;;3.40;1.50;;;;;;;20.72;95.94;101025.53;4992563;28;20028;-66
2022/07/04 10:25:40;;;;;;;3.75;1.40;;;;;;;20.81;92.53;101035.47;4978913;28;20864;-67
2022/07/04 10:28:05;;;;;;;5.32;1.58;;;;;;;20.70;94.51;101003.44;4989746;28;20041;-67
2022/07/04 10:30:39;;;;;;;5.72;1.23;;;;;;;21.06;92.56;101027.09;4990305;28;20068;-67
2022/07/04 10:33:07;;;;;;;5.38;1.38;;;;;;;21.21;89.22;101017.84;4983921;28;20059;-68
2022/07/04 10:35:56;;;;;;;4.55;0.85;;;;;;;21.26;92.46;101004.06;4996318;28;20025;-67
2022/07/04 10:38:25;;;;;;;3.60;1.27;;;;;;;21.42;90.36;101014.31;4988633;28;20119;-66
2022/07/04 10:41:07;;;;;;;3.05;1.00;;;;;;;21.46;93.20;100981.00;4994907;28;20867;-67
2022/07/04 10:43:41;;;;;;;4.18;1.45;;;;;;;21.83;89.56;101017.75;4981138;28;20037;-67
2022/07/04 10:46:13;;;;;;;;;;;;;;;21.84;87.87;101011.44;4991397;28;20080;-65
2022/07/04 10:48:51;;;;;;;6.65;1.55;;;;;;;21.86;89.18;101009.50;4994129;28;19920;-67
2022/07/04 10:51:41;;;;;;;6.45;1.65;;;;;;;22.05;91.75;101007.88;4993878;28;20035;-66
2022/07/04 10:54:20;;;;;;;4.03;1.58;;;;;;;22.30;87.84;101013.63;4998120;28;20032;-66
2022/07/04 10:56:51;;;;;;;3.53;0.85;;;;;;;22.26;87.68;100996.13;4992507;28;20072;-67
2022/07/04 10:59:20;;;;;;;3.53;1.15;;;;;;;22.50;87.58;101008.31;4984777;28;20818;-67
2022/07/04 11:02:06;;;;;;;2.35;0.88;;;;;;;22.38;84.75;101000.38;4991226;28;20025;-67
2022/07/04 11:04:46;;;;;;;6.60;1.52;;;;;;;22.05;85.51;100998.03;4983686;28;20046;-66
2022/07/04 11:07:11;;;;;;;5.60;1.23;;;;;;;22.03;85.69;100991.13;4989941;28;20892;-66
2022/07/04 11:09:36;;;;;;;2.70;1.08;;;;;;;22.13;82.95;100986.66;4982861;28;20037;-67
2022/07/04 11:12:06;;;;;;;1.88;0.95;;;;;;;22.32;81.15;100992.91;4987330;28;20039;-67
2022/07/04 11:14:45;;;;;;;3.17;1.20;;;;;;;22.63;94.87;100988.31;4989867;28;20037;-67
2022/07/04 11:17:21;;;;;;;3.50;1.35;;;;;;;22.64;82.87;100962.34;4990124;28;20056;-67
2022/07/04 11:19:47;;;;;;;3.00;1.30;;;;;;;22.91;82.47;100989.34;4988983;28;20056;-66
2022/07/04 11:22:22;;;;;;;3.63;1.35;;;;;;;23.03;79.24;100996.22;4991315;28;20037;-66
2022/07/04 11:24:48;;;;;;;3.35;1.25;;;;;;;23.02;78.95;100982.97;4991340;28;20889;-66
2022/07/04 11:27:14;;;;;;;8.18;1.42;;;;;;;22.52;76.66;100976.84;4989786;28;20080;-66
2022/07/04 11:29:49;;;;;;;2.63;0.95;;;;;;;22.05;78.00;100949.00;4989077;28;20029;-66
2022/07/04 11:32:14;;;;;;;3.08;0.80;;;;;;;22.53;81.24;100981.22;4990808;28;20035;-66
2022/07/04 11:34:40;;;;;;;2.05;0.85;;;;;;;22.42;80.03;100976.84;4988669;28;20033;-66
2022/07/04 11:37:06;;;;;;;3.00;1.15;;;;;;;22.08;77.25;100976.34;4990429;28;20090;-65